This is the latest recevied weather packets stored in our database for station/object KI8L. If no packets are shown the sender has not sent any weather packets the latest 10 day(s).
| Time | Temp. | Humidity | Pressure | Rain* | Wind** | Luminosity | Snow |
|---|---|---|---|---|---|---|---|
| 1777313756 | 20.56° C | 69% | 1019.7 hPa | 0 mm | - | 608 W/m² | - |
| 1777313453 | 20.56° C | 73% | 1019.7 hPa | 0 mm | - | 629 W/m² | - |
| 1777313150 | 20° C | 73% | 1019.8 hPa | 0 mm | - | 595 W/m² | - |
| 1777312846 | 20° C | 75% | 1020 hPa | 0 mm | - | 481 W/m² | - |
| 1777312543 | 20° C | 71% | 1020.3 hPa | 0 mm | - | 537 W/m² | - |
| 1777312240 | 20° C | 73% | 1020.4 hPa | 0 mm | - | 587 W/m² | - |
| 1777311937 | 19.44° C | 73% | 1020.5 hPa | 0 mm | - | 512 W/m² | - |
| 1777311633 | 20° C | 72% | 1020.5 hPa | 0 mm | - | 432 W/m² | - |
| 1777311332 | 19.44° C | 73% | 1020.6 hPa | 0 mm | - | 441 W/m² | - |
| 1777311029 | 20° C | 71% | 1020.7 hPa | 0 mm | - | 573 W/m² | - |
| 1777310727 | 20.56° C | 67% | 1020.5 hPa | 0 mm | - | 565 W/m² | - |
| 1777310424 | 20° C | 73% | 1020.7 hPa | 0 mm | - | 683 W/m² | - |
| 1777310121 | 20.56° C | 74% | 1020.7 hPa | 0 mm | - | 705 W/m² | - |
| 1777309818 | 20° C | 71% | 1020.7 hPa | 0 mm | - | 704 W/m² | - |
| 1777309516 | 19.44° C | 75% | 1020.7 hPa | 0 mm | - | 601 W/m² | - |
| 1777309213 | 20° C | 70% | 1021 hPa | 0 mm | - | 576 W/m² | - |
| 1777308911 | 18.89° C | 74% | 1021 hPa | 0 mm | - | 629 W/m² | - |
| 1777308606 | 18.89° C | 73% | 1021.2 hPa | 0 mm | - | 608 W/m² | - |
| 1777308302 | 18.89° C | 75% | 1021.2 hPa | 0 mm | - | 562 W/m² | - |
| 1777307997 | 18.33° C | 74% | 1021 hPa | 0 mm | - | 495 W/m² | - |
| 1777307696 | 18.33° C | 77% | 1021.3 hPa | 0 mm | - | 458 W/m² | - |
| 1777307392 | 18.89° C | 73% | 1021.3 hPa | 0 mm | - | 541 W/m² | - |
| 1777307090 | 18.89° C | 74% | 1021.3 hPa | 0 mm | - | 542 W/m² | - |
| 1777306787 | 18.89° C | 73% | 1021.2 hPa | 0 mm | - | 565 W/m² | - |
| 1777306484 | 18.33° C | 78% | 1021.4 hPa | 0 mm | - | 567 W/m² | - |
* Rain latest hour (hover to see other rain measurements)
** Current wind speed in m/s (hover to see current wind gust speed)